sensor_id;sensor_type;location;lat;lon;timestamp;pressure;altitude;pressure_sealevel;temperature;humidity
45285;BME280;31026;43.780;25.948;2022-07-10T00:01:32;100503.50;;;23.73;55.99
45285;BME280;31026;43.780;25.948;2022-07-10T00:04:00;100487.31;;;23.73;55.99
45285;BME280;31026;43.780;25.948;2022-07-10T00:06:29;100491.72;;;23.82;56.07
45285;BME280;31026;43.780;25.948;2022-07-10T00:08:58;100499.81;;;23.74;55.86
45285;BME280;31026;43.780;25.948;2022-07-10T00:11:26;100480.75;;;23.59;55.97
45285;BME280;31026;43.780;25.948;2022-07-10T00:14:14;100485.13;;;23.68;56.25
45285;BME280;31026;43.780;25.948;2022-07-10T00:16:52;100475.53;;;23.66;56.25
45285;BME280;31026;43.780;25.948;2022-07-10T00:19:21;100488.19;;;23.57;56.25
45285;BME280;31026;43.780;25.948;2022-07-10T00:21:50;100482.28;;;23.53;56.29
45285;BME280;31026;43.780;25.948;2022-07-10T00:24:21;100475.22;;;23.52;56.14
45285;BME280;31026;43.780;25.948;2022-07-10T00:26:50;100485.13;;;23.68;55.99
45285;BME280;31026;43.780;25.948;2022-07-10T00:29:22;100470.81;;;23.59;56.18
45285;BME280;31026;43.780;25.948;2022-07-10T00:31:55;100475.53;;;23.66;56.25
45285;BME280;31026;43.780;25.948;2022-07-10T00:34:23;100479.75;;;23.60;56.52
45285;BME280;31026;43.780;25.948;2022-07-10T00:36:54;100467.81;;;23.54;56.33
45285;BME280;31026;43.780;25.948;2022-07-10T00:39:24;100480.25;;;23.55;56.64
45285;BME280;31026;43.780;25.948;2022-07-10T00:42:07;100470.34;;;23.56;56.70
45285;BME280;31026;43.780;25.948;2022-07-10T00:44:37;100487.00;;;23.59;56.57
45285;BME280;31026;43.780;25.948;2022-07-10T00:47:18;100466.59;;;23.57;56.39
45285;BME280;31026;43.780;25.948;2022-07-10T00:49:54;100469.63;;;23.62;56.28
45285;BME280;31026;43.780;25.948;2022-07-10T00:52:22;100462.03;;;23.57;56.49
45285;BME280;31026;43.780;25.948;2022-07-10T00:54:55;100469.00;;;23.52;56.49
45285;BME280;31026;43.780;25.948;2022-07-10T00:57:23;100475.75;;;23.48;56.62
45285;BME280;31026;43.780;25.948;2022-07-10T00:59:51;100477.59;;;23.47;56.63
45285;BME280;31026;43.780;25.948;2022-07-10T01:02:27;100471.03;;;23.50;56.43
45285;BME280;31026;43.780;25.948;2022-07-10T01:04:57;100471.03;;;23.50;56.27
45285;BME280;31026;43.780;25.948;2022-07-10T01:07:29;100485.31;;;23.58;56.11
45285;BME280;31026;43.780;25.948;2022-07-10T01:10:02;100476.22;;;23.51;56.17
45285;BME280;31026;43.780;25.948;2022-07-10T01:12:31;100485.53;;;23.49;56.44
45285;BME280;31026;43.780;25.948;2022-07-10T01:15:01;100469.16;;;23.50;56.50
45285;BME280;31026;43.780;25.948;2022-07-10T01:17:36;100465.25;;;23.53;56.28
45285;BME280;31026;43.780;25.948;2022-07-10T01:20:05;100461.56;;;23.46;56.37
45285;BME280;31026;43.780;25.948;2022-07-10T01:22:42;100459.56;;;23.39;56.50
45285;BME280;31026;43.780;25.948;2022-07-10T01:25:14;100458.88;;;23.46;56.42
45285;BME280;31026;43.780;25.948;2022-07-10T01:27:46;100467.47;;;23.41;56.32
45285;BME280;31026;43.780;25.948;2022-07-10T01:30:15;100460.22;;;23.41;56.26
45285;BME280;31026;43.780;25.948;2022-07-10T01:32:56;100462.59;;;23.45;55.95
45285;BME280;31026;43.780;25.948;2022-07-10T01:35:27;100450.09;;;23.43;56.08
45285;BME280;31026;43.780;25.948;2022-07-10T01:38:07;100454.19;;;23.31;56.02
45285;BME280;31026;43.780;25.948;2022-07-10T01:40:36;100459.09;;;23.19;56.04
45285;BME280;31026;43.780;25.948;2022-07-10T01:43:12;100459.94;;;23.20;56.11
45285;BME280;31026;43.780;25.948;2022-07-10T01:45:42;100462.81;;;23.18;56.01
45285;BME280;31026;43.780;25.948;2022-07-10T01:48:12;100456.72;;;23.25;56.04
45285;BME280;31026;43.780;25.948;2022-07-10T01:50:43;100482.69;;;23.26;56.15
45285;BME280;31026;43.780;25.948;2022-07-10T01:53:16;100456.22;;;23.21;56.20
45285;BME280;31026;43.780;25.948;2022-07-10T01:55:45;100453.50;;;23.29;56.01
45285;BME280;31026;43.780;25.948;2022-07-10T01:58:16;100445.56;;;23.28;56.01
45285;BME280;31026;43.780;25.948;2022-07-10T02:00:51;100446.78;;;23.25;56.02
45285;BME280;31026;43.780;25.948;2022-07-10T02:03:20;100448.81;;;23.23;56.26
45285;BME280;31026;43.780;25.948;2022-07-10T02:06:00;100445.56;;;23.28;55.98
45285;BME280;31026;43.780;25.948;2022-07-10T02:08:32;100446.78;;;23.25;55.93
45285;BME280;31026;43.780;25.948;2022-07-10T02:11:00;100433.94;;;23.27;56.10
45285;BME280;31026;43.780;25.948;2022-07-10T02:13:28;100452.16;;;23.25;56.20
45285;BME280;31026;43.780;25.948;2022-07-10T02:15:57;100445.78;;;23.26;55.95
45285;BME280;31026;43.780;25.948;2022-07-10T02:18:26;100443.91;;;23.27;56.42
45285;BME280;31026;43.780;25.948;2022-07-10T02:20:54;100446.75;;;23.33;56.03
45285;BME280;31026;43.780;25.948;2022-07-10T02:23:23;100438.66;;;23.33;56.29
45285;BME280;31026;43.780;25.948;2022-07-10T02:25:54;100443.56;;;23.30;56.44
45285;BME280;31026;43.780;25.948;2022-07-10T02:28:22;100440.03;;;23.21;56.30
45285;BME280;31026;43.780;25.948;2022-07-10T02:30:50;100431.97;;;23.13;56.20
45285;BME280;31026;43.780;25.948;2022-07-10T02:33:19;100443.41;;;23.23;56.05
45285;BME280;31026;43.780;25.948;2022-07-10T02:35:47;100444.75;;;23.19;55.86
45285;BME280;31026;43.780;25.948;2022-07-10T02:38:16;100453.66;;;23.28;55.78
45285;BME280;31026;43.780;25.948;2022-07-10T02:40:44;100441.53;;;23.23;56.28
45285;BME280;31026;43.780;25.948;2022-07-10T02:43:15;100438.38;;;23.03;56.46
45285;BME280;31026;43.780;25.948;2022-07-10T02:45:44;100452.88;;;23.02;56.81
45285;BME280;31026;43.780;25.948;2022-07-10T02:48:12;100447.81;;;23.16;56.32
45285;BME280;31026;43.780;25.948;2022-07-10T02:50:43;100442.41;;;23.16;56.64
45285;BME280;31026;43.780;25.948;2022-07-10T02:53:11;100450.50;;;23.16;56.31
45285;BME280;31026;43.780;25.948;2022-07-10T02:55:40;100448.81;;;23.15;56.48
45285;BME280;31026;43.780;25.948;2022-07-10T02:58:09;100446.94;;;23.23;56.60
45285;BME280;31026;43.780;25.948;2022-07-10T03:00:40;100452.69;;;23.20;56.50
45285;BME280;31026;43.780;25.948;2022-07-10T03:03:08;100451.84;;;23.20;56.44
45285;BME280;31026;43.780;25.948;2022-07-10T03:05:37;100461.09;;;23.17;56.58
45285;BME280;31026;43.780;25.948;2022-07-10T03:08:05;100443.59;;;23.13;57.00
45285;BME280;31026;43.780;25.948;2022-07-10T03:10:33;100444.75;;;23.19;56.79
45285;BME280;31026;43.780;25.948;2022-07-10T03:13:02;100454.38;;;23.13;56.90
45285;BME280;31026;43.780;25.948;2022-07-10T03:15:30;100460.28;;;23.17;56.82
45285;BME280;31026;43.780;25.948;2022-07-10T03:18:01;100434.50;;;23.14;57.16
45285;BME280;31026;43.780;25.948;2022-07-10T03:20:30;100442.22;;;23.17;57.13
45285;BME280;31026;43.780;25.948;2022-07-10T03:22:58;100436.34;;;23.22;56.84
45285;BME280;31026;43.780;25.948;2022-07-10T03:25:27;100454.88;;;23.25;56.91
45285;BME280;31026;43.780;25.948;2022-07-10T03:27:55;100436.50;;;23.20;57.06
45285;BME280;31026;43.780;25.948;2022-07-10T03:30:23;100443.09;;;23.18;57.26
45285;BME280;31026;43.780;25.948;2022-07-10T03:32:52;100431.97;;;23.13;57.28
45285;BME280;31026;43.780;25.948;2022-07-10T03:35:23;100448.16;;;23.13;57.33
45285;BME280;31026;43.780;25.948;2022-07-10T03:37:51;100433.66;;;23.22;56.92
45285;BME280;31026;43.780;25.948;2022-07-10T03:40:19;100426.56;;;23.21;57.28
45285;BME280;31026;43.780;25.948;2022-07-10T03:42:48;100429.06;;;23.31;56.86
45285;BME280;31026;43.780;25.948;2022-07-10T03:45:16;100428.38;;;23.37;57.01
45285;BME280;31026;43.780;25.948;2022-07-10T03:47:44;100421.81;;;23.31;56.93
45285;BME280;31026;43.780;25.948;2022-07-10T03:50:13;100431.91;;;23.37;57.33
45285;BME280;31026;43.780;25.948;2022-07-10T03:52:44;100434.97;;;23.34;57.52
45285;BME280;31026;43.780;25.948;2022-07-10T03:55:12;100429.41;;;23.36;57.47
45285;BME280;31026;43.780;25.948;2022-07-10T03:57:41;100420.16;;;23.22;57.69
45285;BME280;31026;43.780;25.948;2022-07-10T04:00:19;100425.69;;;23.29;57.82
45285;BME280;31026;43.780;25.948;2022-07-10T04:02:54;100415.91;;;23.28;58.15
45285;BME280;31026;43.780;25.948;2022-07-10T04:05:23;100445.59;;;23.36;58.18
45285;BME280;31026;43.780;25.948;2022-07-10T04:07:54;100459.91;;;23.36;58.08
45285;BME280;31026;43.780;25.948;2022-07-10T04:10:23;100448.44;;;23.34;58.51
45285;BME280;31026;43.780;25.948;2022-07-10T04:12:52;100435.94;;;23.41;58.04
45285;BME280;31026;43.780;25.948;2022-07-10T04:15:20;100441.66;;;23.47;58.06
45285;BME280;31026;43.780;25.948;2022-07-10T04:17:49;100456.16;;;23.46;58.65
45285;BME280;31026;43.780;25.948;2022-07-10T04:20:18;100449.28;;;23.35;58.63
45285;BME280;31026;43.780;25.948;2022-07-10T04:22:47;100463.47;;;23.29;58.76
45285;BME280;31026;43.780;25.948;2022-07-10T04:25:18;100452.81;;;23.35;58.70
45285;BME280;31026;43.780;25.948;2022-07-10T04:27:46;100456.69;;;23.41;58.73
45285;BME280;31026;43.780;25.948;2022-07-10T04:30:14;100456.19;;;23.37;58.84
45285;BME280;31026;43.780;25.948;2022-07-10T04:32:43;100457.53;;;23.41;58.86
45285;BME280;31026;43.780;25.948;2022-07-10T04:35:11;100441.16;;;23.43;58.53
45285;BME280;31026;43.780;25.948;2022-07-10T04:37:40;100457.19;;;23.45;58.73
45285;BME280;31026;43.780;25.948;2022-07-10T04:40:09;100447.09;;;23.38;58.94
45285;BME280;31026;43.780;25.948;2022-07-10T04:42:41;100470.88;;;23.35;58.99
45285;BME280;31026;43.780;25.948;2022-07-10T04:45:09;100460.25;;;23.33;59.15
45285;BME280;31026;43.780;25.948;2022-07-10T04:47:38;100455.53;;;23.27;59.24
45285;BME280;31026;43.780;25.948;2022-07-10T04:50:07;100464.66;;;23.26;59.38
45285;BME280;31026;43.780;25.948;2022-07-10T04:52:35;100461.59;;;23.29;59.52
45285;BME280;31026;43.780;25.948;2022-07-10T04:55:04;100487.22;;;23.41;59.09
45285;BME280;31026;43.780;25.948;2022-07-10T04:57:33;100461.91;;;23.42;59.14
45285;BME280;31026;43.780;25.948;2022-07-10T05:00:04;100454.16;;;23.39;59.14
45285;BME280;31026;43.780;25.948;2022-07-10T05:02:33;100446.53;;;23.51;58.99
45285;BME280;31026;43.780;25.948;2022-07-10T05:05:01;100469.47;;;23.55;58.84
45285;BME280;31026;43.780;25.948;2022-07-10T05:07:29;100460.53;;;23.55;59.01
45285;BME280;31026;43.780;25.948;2022-07-10T05:09:58;100464.06;;;23.55;59.46
45285;BME280;31026;43.780;25.948;2022-07-10T05:12:26;100460.56;;;23.47;59.66
45285;BME280;31026;43.780;25.948;2022-07-10T05:14:54;100460.53;;;23.55;59.44
45285;BME280;31026;43.780;25.948;2022-07-10T05:17:27;100469.66;;;23.54;59.53
45285;BME280;31026;43.780;25.948;2022-07-10T05:19:57;100464.59;;;23.51;59.35
45285;BME280;31026;43.780;25.948;2022-07-10T05:22:25;100464.56;;;23.59;59.26
45285;BME280;31026;43.780;25.948;2022-07-10T05:24:55;100459.88;;;23.53;59.44
45285;BME280;31026;43.780;25.948;2022-07-10T05:27:23;100456.63;;;23.57;59.50
45285;BME280;31026;43.780;25.948;2022-07-10T05:29:52;100456.16;;;23.54;59.84
45285;BME280;31026;43.780;25.948;2022-07-10T05:32:20;100458.84;;;23.62;59.77
45285;BME280;31026;43.780;25.948;2022-07-10T05:34:53;100448.53;;;23.66;59.28
45285;BME280;31026;43.780;25.948;2022-07-10T05:37:21;100461.38;;;23.63;59.79
45285;BME280;31026;43.780;25.948;2022-07-10T05:39:49;100481.44;;;23.61;59.84
45285;BME280;31026;43.780;25.948;2022-07-10T05:42:17;100473.84;;;23.65;60.02
45285;BME280;31026;43.780;25.948;2022-07-10T05:44:46;100465.56;;;23.66;59.57
45285;BME280;31026;43.780;25.948;2022-07-10T05:47:14;100457.13;;;23.61;60.16
45285;BME280;31026;43.780;25.948;2022-07-10T05:49:42;100461.03;;;23.58;60.30
45285;BME280;31026;43.780;25.948;2022-07-10T05:52:13;100474.34;;;23.68;60.15
45285;BME280;31026;43.780;25.948;2022-07-10T05:54:42;100450.25;;;23.58;60.72
45285;BME280;31026;43.780;25.948;2022-07-10T05:57:10;100465.22;;;23.77;60.21
45285;BME280;31026;43.780;25.948;2022-07-10T05:59:39;100441.59;;;23.63;60.41
45285;BME280;31026;43.780;25.948;2022-07-10T06:02:07;100449.00;;;23.69;60.28
45285;BME280;31026;43.780;25.948;2022-07-10T06:04:36;100447.34;;;23.68;60.47
45285;BME280;31026;43.780;25.948;2022-07-10T06:07:04;100453.41;;;23.78;60.14
45285;BME280;31026;43.780;25.948;2022-07-10T06:09:35;100457.59;;;23.81;60.02
45285;BME280;31026;43.780;25.948;2022-07-10T06:12:04;100451.72;;;23.77;60.16
45285;BME280;31026;43.780;25.948;2022-07-10T06:14:32;100456.78;;;23.80;60.26
45285;BME280;31026;43.780;25.948;2022-07-10T06:17:01;100455.25;;;23.86;59.94
45285;BME280;31026;43.780;25.948;2022-07-10T06:19:29;100452.84;;;23.91;59.88
45285;BME280;31026;43.780;25.948;2022-07-10T06:21:57;100448.75;;;23.95;59.85
45285;BME280;31026;43.780;25.948;2022-07-10T06:24:40;100453.81;;;23.98;59.64
45285;BME280;31026;43.780;25.948;2022-07-10T06:27:09;100457.56;;;23.97;59.81
45285;BME280;31026;43.780;25.948;2022-07-10T06:29:37;100446.25;;;23.94;59.96
45285;BME280;31026;43.780;25.948;2022-07-10T06:32:06;100455.41;;;23.85;60.42
45285;BME280;31026;43.780;25.948;2022-07-10T06:34:35;100456.06;;;23.87;60.66
45285;BME280;31026;43.780;25.948;2022-07-10T06:37:03;100455.06;;;23.88;60.27
45285;BME280;31026;43.780;25.948;2022-07-10T06:39:32;100459.44;;;23.89;60.05
45285;BME280;31026;43.780;25.948;2022-07-10T06:42:04;100449.13;;;23.92;60.03
45285;BME280;31026;43.780;25.948;2022-07-10T06:44:33;100448.59;;;23.97;60.03
45285;BME280;31026;43.780;25.948;2022-07-10T06:47:02;100453.50;;;24.01;59.76
45285;BME280;31026;43.780;25.948;2022-07-10T06:49:43;100449.09;;;24.00;59.84
45285;BME280;31026;43.780;25.948;2022-07-10T06:52:12;100441.31;;;24.06;59.85
45285;BME280;31026;43.780;25.948;2022-07-10T06:54:41;100442.31;;;24.05;59.85
45285;BME280;31026;43.780;25.948;2022-07-10T06:57:12;100442.03;;;23.99;59.66
45285;BME280;31026;43.780;25.948;2022-07-10T06:59:40;100448.75;;;24.04;60.41
45285;BME280;31026;43.780;25.948;2022-07-10T07:02:09;100459.00;;;24.08;60.03
45285;BME280;31026;43.780;25.948;2022-07-10T07:04:37;100452.78;;;24.08;60.13
45285;BME280;31026;43.780;25.948;2022-07-10T07:07:06;100440.78;;;24.10;60.31
45285;BME280;31026;43.780;25.948;2022-07-10T07:09:34;100433.31;;;24.12;60.04
45285;BME280;31026;43.780;25.948;2022-07-10T07:12:03;100445.84;;;24.13;60.04
45285;BME280;31026;43.780;25.948;2022-07-10T07:14:34;100446.50;;;24.15;59.97
45285;BME280;31026;43.780;25.948;2022-07-10T07:17:04;100437.00;;;24.19;59.90
45285;BME280;31026;43.780;25.948;2022-07-10T07:19:34;100445.94;;;24.20;59.69
45285;BME280;31026;43.780;25.948;2022-07-10T07:22:15;100448.47;;;24.21;59.54
45285;BME280;31026;43.780;25.948;2022-07-10T07:24:55;100449.81;;;24.26;59.59
45285;BME280;31026;43.780;25.948;2022-07-10T07:27:24;100441.88;;;24.24;59.58
45285;BME280;31026;43.780;25.948;2022-07-10T07:29:55;100434.09;;;24.21;59.55
45285;BME280;31026;43.780;25.948;2022-07-10T07:32:23;100435.25;;;24.27;59.22
45285;BME280;31026;43.780;25.948;2022-07-10T07:34:51;100428.84;;;24.28;59.27
45285;BME280;31026;43.780;25.948;2022-07-10T07:37:20;100437.31;;;24.25;58.98
45285;BME280;31026;43.780;25.948;2022-07-10T07:39:49;100419.44;;;24.24;58.59
45285;BME280;31026;43.780;25.948;2022-07-10T07:42:17;100429.84;;;24.27;58.37
45285;BME280;31026;43.780;25.948;2022-07-10T07:44:45;100425.78;;;24.31;58.16
45285;BME280;31026;43.780;25.948;2022-07-10T07:47:16;100432.03;;;24.31;57.82
45285;BME280;31026;43.780;25.948;2022-07-10T07:49:45;100432.72;;;24.33;57.05
45285;BME280;31026;43.780;25.948;2022-07-10T07:52:13;100417.88;;;24.29;57.55
45285;BME280;31026;43.780;25.948;2022-07-10T07:54:42;100423.06;;;24.31;57.38
45285;BME280;31026;43.780;25.948;2022-07-10T07:57:10;100413.78;;;24.33;57.06
45285;BME280;31026;43.780;25.948;2022-07-10T07:59:38;100417.50;;;24.32;56.20
45285;BME280;31026;43.780;25.948;2022-07-10T08:02:07;100437.91;;;24.35;56.17
45285;BME280;31026;43.780;25.948;2022-07-10T08:04:38;100425.94;;;24.37;56.61
45285;BME280;31026;43.780;25.948;2022-07-10T08:07:06;100416.28;;;24.35;55.66
45285;BME280;31026;43.780;25.948;2022-07-10T08:09:34;100421.91;;;24.33;55.71
45285;BME280;31026;43.780;25.948;2022-07-10T08:12:03;100407.84;;;24.38;55.75
45285;BME280;31026;43.780;25.948;2022-07-10T08:14:32;100415.28;;;24.36;55.70
45285;BME280;31026;43.780;25.948;2022-07-10T08:17:00;100410.88;;;24.35;55.91
45285;BME280;31026;43.780;25.948;2022-07-10T08:19:28;100416.66;;;24.32;55.46
45285;BME280;31026;43.780;25.948;2022-07-10T08:22:00;100410.72;;;24.36;55.62
45285;BME280;31026;43.780;25.948;2022-07-10T08:24:28;100424.06;;;24.38;55.91
45285;BME280;31026;43.780;25.948;2022-07-10T08:26:56;100420.53;;;24.37;56.01
45285;BME280;31026;43.780;25.948;2022-07-10T08:29:25;100413.41;;;24.36;56.45
45285;BME280;31026;43.780;25.948;2022-07-10T08:31:53;100415.94;;;24.38;56.18
45285;BME280;31026;43.780;25.948;2022-07-10T08:34:21;100432.03;;;24.31;57.85
45285;BME280;31026;43.780;25.948;2022-07-10T08:36:50;100437.97;;;23.39;59.49
45285;BME280;31026;43.780;25.948;2022-07-10T08:39:21;100437.34;;;22.63;59.61
45285;BME280;31026;43.780;25.948;2022-07-10T08:41:49;100438.66;;;22.27;59.15
45285;BME280;31026;43.780;25.948;2022-07-10T08:44:18;100443.25;;;23.25;57.80
45285;BME280;31026;43.780;25.948;2022-07-10T08:46:46;100436.84;;;23.73;57.46
45285;BME280;31026;43.780;25.948;2022-07-10T08:49:15;100435.09;;;23.97;57.20
45285;BME280;31026;43.780;25.948;2022-07-10T08:51:47;100429.31;;;24.08;56.72
45285;BME280;31026;43.780;25.948;2022-07-10T08:54:15;100427.59;;;24.15;57.04
45285;BME280;31026;43.780;25.948;2022-07-10T08:56:47;100421.81;;;24.18;57.09
45285;BME280;31026;43.780;25.948;2022-07-10T08:59:16;100419.78;;;23.25;59.74
45285;BME280;31026;43.780;25.948;2022-07-10T09:01:45;100428.41;;;22.38;59.91
45285;BME280;31026;43.780;25.948;2022-07-10T09:04:15;100436.50;;;22.04;59.05
45285;BME280;31026;43.780;25.948;2022-07-10T09:06:44;100434.06;;;21.76;58.12
45285;BME280;31026;43.780;25.948;2022-07-10T09:09:12;100433.06;;;21.77;56.83
45285;BME280;31026;43.780;25.948;2022-07-10T09:11:41;100423.28;;;21.76;55.89
45285;BME280;31026;43.780;25.948;2022-07-10T09:14:14;100430.56;;;21.84;56.11
45285;BME280;31026;43.780;25.948;2022-07-10T09:16:43;100428.88;;;21.83;56.56
45285;BME280;31026;43.780;25.948;2022-07-10T09:19:16;100416.66;;;21.97;56.81
45285;BME280;31026;43.780;25.948;2022-07-10T09:21:45;100418.34;;;22.06;57.39
45285;BME280;31026;43.780;25.948;2022-07-10T09:24:13;100411.97;;;22.15;57.51
45285;BME280;31026;43.780;25.948;2022-07-10T09:26:47;100423.72;;;22.06;58.11
45285;BME280;31026;43.780;25.948;2022-07-10T09:29:19;100409.59;;;22.04;58.00
45285;BME280;31026;43.780;25.948;2022-07-10T09:31:48;100417.97;;;21.84;58.81
45285;BME280;31026;43.780;25.948;2022-07-10T09:34:16;100411.28;;;22.05;58.14
45285;BME280;31026;43.780;25.948;2022-07-10T09:36:44;100418.19;;;22.08;58.79
45285;BME280;31026;43.780;25.948;2022-07-10T09:39:13;100414.13;;;22.03;58.36
45285;BME280;31026;43.780;25.948;2022-07-10T09:41:41;100416.84;;;22.12;58.42
45285;BME280;31026;43.780;25.948;2022-07-10T09:44:10;100411.44;;;22.03;58.08
45285;BME280;31026;43.780;25.948;2022-07-10T09:46:41;100398.00;;;22.12;58.98
45285;BME280;31026;43.780;25.948;2022-07-10T09:49:10;100409.03;;;22.51;60.52
45285;BME280;31026;43.780;25.948;2022-07-10T09:51:39;100410.91;;;22.59;61.82
45285;BME280;31026;43.780;25.948;2022-07-10T09:54:08;100407.53;;;22.73;61.75
45285;BME280;31026;43.780;25.948;2022-07-10T09:56:39;100412.22;;;22.88;62.20
45285;BME280;31026;43.780;25.948;2022-07-10T09:59:09;100406.66;;;22.89;62.99
45285;BME280;31026;43.780;25.948;2022-07-10T10:01:42;100399.63;;;23.05;62.49
45285;BME280;31026;43.780;25.948;2022-07-10T10:04:11;100403.97;;;23.06;63.88
45285;BME280;31026;43.780;25.948;2022-07-10T10:06:40;100407.16;;;23.17;63.65
45285;BME280;31026;43.780;25.948;2022-07-10T10:09:11;100393.69;;;23.09;64.53
45285;BME280;31026;43.780;25.948;2022-07-10T10:11:41;100387.78;;;23.14;64.39
45285;BME280;31026;43.780;25.948;2022-07-10T10:14:12;100387.47;;;22.92;62.91
45285;BME280;31026;43.780;25.948;2022-07-10T10:16:43;100380.25;;;22.76;62.16
45285;BME280;31026;43.780;25.948;2022-07-10T10:19:13;100372.66;;;22.63;62.69
45285;BME280;31026;43.780;25.948;2022-07-10T10:21:54;100376.38;;;22.62;63.48
45285;BME280;31026;43.780;25.948;2022-07-10T10:24:24;100379.38;;;22.59;63.99
45285;BME280;31026;43.780;25.948;2022-07-10T10:26:53;100366.59;;;22.61;64.28
45285;BME280;31026;43.780;25.948;2022-07-10T10:29:22;100367.25;;;22.63;64.29
45285;BME280;31026;43.780;25.948;2022-07-10T10:31:53;100350.09;;;22.64;64.83
45285;BME280;31026;43.780;25.948;2022-07-10T10:37:05;100359.84;;;22.82;64.35
45285;BME280;31026;43.780;25.948;2022-07-10T10:42:31;100349.34;;;22.95;64.33
45285;BME280;31026;43.780;25.948;2022-07-10T10:50:42;100356.28;;;22.98;64.37
45285;BME280;31026;43.780;25.948;2022-07-10T10:53:14;100346.72;;;22.71;64.15
45285;BME280;31026;43.780;25.948;2022-07-10T10:58:25;100354.63;;;22.56;64.53
45285;BME280;31026;43.780;25.948;2022-07-10T11:01:01;100341.34;;;22.62;64.70
45285;BME280;31026;43.780;25.948;2022-07-10T11:03:30;100347.41;;;22.64;65.35
45285;BME280;31026;43.780;25.948;2022-07-10T11:06:01;100352.94;;;22.71;65.30
45285;BME280;31026;43.780;25.948;2022-07-10T11:08:35;100342.50;;;22.68;65.38
45285;BME280;31026;43.780;25.948;2022-07-10T11:13:47;100341.97;;;22.81;65.05
45285;BME280;31026;43.780;25.948;2022-07-10T11:16:17;100328.47;;;22.89;64.72
45285;BME280;31026;43.780;25.948;2022-07-10T11:18:46;100319.41;;;22.82;65.33
45285;BME280;31026;43.780;25.948;2022-07-10T11:21:24;100318.88;;;22.87;64.94
45285;BME280;31026;43.780;25.948;2022-07-10T11:23:56;100305.53;;;23.01;64.66
45285;BME280;31026;43.780;25.948;2022-07-10T11:26:29;100318.34;;;22.99;64.98
45285;BME280;31026;43.780;25.948;2022-07-10T11:29:03;100303.53;;;22.87;64.60
45285;BME280;31026;43.780;25.948;2022-07-10T11:31:32;100310.63;;;22.88;65.82
45285;BME280;31026;43.780;25.948;2022-07-10T11:34:04;100297.44;;;23.10;65.66
45285;BME280;31026;43.780;25.948;2022-07-10T11:36:38;100293.66;;;23.27;64.68
45285;BME280;31026;43.780;25.948;2022-07-10T11:39:07;100298.25;;;23.58;63.74
45285;BME280;31026;43.780;25.948;2022-07-10T11:41:42;100298.50;;;23.71;63.09
45285;BME280;31026;43.780;25.948;2022-07-10T11:44:13;100299.50;;;23.78;62.61
45285;BME280;31026;43.780;25.948;2022-07-10T11:46:41;100286.66;;;23.80;62.55
45285;BME280;31026;43.780;25.948;2022-07-10T11:49:10;100281.59;;;23.86;62.22
45285;BME280;31026;43.780;25.948;2022-07-10T11:51:42;100283.25;;;23.87;62.27
45285;BME280;31026;43.780;25.948;2022-07-10T11:54:12;100270.56;;;23.87;62.03
45285;BME280;31026;43.780;25.948;2022-07-10T11:56:41;100281.22;;;23.89;62.62
45285;BME280;31026;43.780;25.948;2022-07-10T11:59:10;100272.22;;;23.96;62.54
45285;BME280;31026;43.780;25.948;2022-07-10T12:01:41;100268.69;;;23.96;61.96
45285;BME280;31026;43.780;25.948;2022-07-10T12:04:09;100254.78;;;23.99;61.66
45285;BME280;31026;43.780;25.948;2022-07-10T12:06:39;100292.09;;;24.04;61.33
45285;BME280;31026;43.780;25.948;2022-07-10T12:09:10;100266.09;;;24.02;61.88
45285;BME280;31026;43.780;25.948;2022-07-10T12:11:39;100265.72;;;24.06;61.87
45285;BME280;31026;43.780;25.948;2022-07-10T12:14:08;100272.63;;;24.08;61.62
45285;BME280;31026;43.780;25.948;2022-07-10T12:16:38;100265.00;;;24.12;61.41
45285;BME280;31026;43.780;25.948;2022-07-10T12:19:07;100260.44;;;24.12;61.37
45285;BME280;31026;43.780;25.948;2022-07-10T12:21:36;100274.94;;;24.11;61.42
45285;BME280;31026;43.780;25.948;2022-07-10T12:24:05;100271.59;;;24.09;61.50
45285;BME280;31026;43.780;25.948;2022-07-10T12:26:37;100272.63;;;24.08;61.27
45285;BME280;31026;43.780;25.948;2022-07-10T12:29:10;100263.13;;;24.12;61.49
45285;BME280;31026;43.780;25.948;2022-07-10T12:31:39;100258.41;;;24.14;61.45
45285;BME280;31026;43.780;25.948;2022-07-10T12:34:10;100258.41;;;24.14;61.35
45285;BME280;31026;43.780;25.948;2022-07-10T12:36:42;100246.94;;;24.12;61.20
45285;BME280;31026;43.780;25.948;2022-07-10T12:39:11;100265.28;;;24.17;61.12
45285;BME280;31026;43.780;25.948;2022-07-10T12:41:58;100255.69;;;24.14;61.15
45285;BME280;31026;43.780;25.948;2022-07-10T12:44:34;100248.91;;;24.18;60.81
45285;BME280;31026;43.780;25.948;2022-07-10T12:47:03;100245.38;;;24.18;61.02
45285;BME280;31026;43.780;25.948;2022-07-10T12:52:20;100254.31;;;24.18;60.94
45285;BME280;31026;43.780;25.948;2022-07-10T12:55:04;100224.41;;;24.20;60.78
45285;BME280;31026;43.780;25.948;2022-07-10T12:57:35;100228.13;;;24.19;60.77
45285;BME280;31026;43.780;25.948;2022-07-10T13:00:13;100235.69;;;24.24;60.52
45285;BME280;31026;43.780;25.948;2022-07-10T13:03:00;100222.38;;;24.22;60.85
45285;BME280;31026;43.780;25.948;2022-07-10T13:05:30;100216.31;;;24.20;60.58
45285;BME280;31026;43.780;25.948;2022-07-10T13:08:05;100212.78;;;24.19;60.68
45285;BME280;31026;43.780;25.948;2022-07-10T13:10:36;100218.19;;;24.19;60.83
45285;BME280;31026;43.780;25.948;2022-07-10T13:13:04;100212.78;;;24.19;60.77
45285;BME280;31026;43.780;25.948;2022-07-10T13:15:33;100219.19;;;24.18;60.90